^^
Saratoga-Weather Station Historical Data
Daily Summary for July 5, 2021 Units:  English    Metric   Both
Daily Weekly Monthly Yearly Custom
  High: Low: Average:
Temperature: 52 °F 42.3 °F 46.6 °F
Dew Point: 44.8 °F 40.3 °F 43.2 °F
Humidity: 95% 72% 88%
Wind Speed: 9mph 0mph 1.6mph
Wind Gust: 9mph - -
Wind- - West
Pressure: 30.4 in 30 in -
Precipitation: 0 in    
Historical Graphs
 
 
Tabular Data for July 5, 2021
Time Temperature Dew Point Pressure Wind Wind Speed Wind Gust Humidity Rainfall Rate (Hourly) solar
00:04 44.8 °F 43.5 °F 30 in West 2.9 mph 4 mph 95% 0 in 0 W/m2
00:09 44.8 °F 43.5 °F 30 in West 2 mph 3 mph 95% 0 in 0 W/m2
00:14 44.8 °F 43.5 °F 30 in West 2 mph 4 mph 95% 0 in 0 W/m2
00:19 44.8 °F 43.5 °F 30 in WSW 2.9 mph 5 mph 95% 0 in 0 W/m2
00:24 44.8 °F 43.5 °F 30 in West 2 mph 4 mph 95% 0 in 0 W/m2
00:29 44.8 °F 43.5 °F 30 in WNW 4 mph 5 mph 95% 0 in 0 W/m2
00:34 44.8 °F 43.5 °F 30 in WNW 2.9 mph 7 mph 95% 0 in 0 W/m2
00:39 44.8 °F 43.5 °F 30 in West 2.9 mph 6 mph 95% 0 in 0 W/m2
00:44 45 °F 43.7 °F 30 in SW 2 mph 6 mph 95% 0 in 0 W/m2
00:49 45 °F 43.7 °F 30 in West 2.9 mph 9 mph 95% 0 in 0 W/m2
00:54 45 °F 43.7 °F 30 in WSW 4.9 mph 8 mph 95% 0 in 0 W/m2
00:59 45.1 °F 43.9 °F 30 in West 2 mph 9 mph 95% 0 in 0 W/m2
01:04 45.1 °F 43.9 °F 30 in WNW 6 mph 7 mph 95% 0 in 0 W/m2
01:09 45.1 °F 43.9 °F 30 in West 2.9 mph 7 mph 95% 0 in 0 W/m2
01:14 45.3 °F 44.1 °F 30 in West 2.9 mph 6 mph 95% 0 in 0 W/m2
01:19 45.3 °F 44.1 °F 30 in SW 2 mph 3 mph 95% 0 in 0 W/m2
01:24 45.3 °F 44.1 °F 30 in West 2 mph 4 mph 95% 0 in 0 W/m2
01:29 45.3 °F 44.1 °F 30 in WSW 2.9 mph 4 mph 95% 0 in 0 W/m2
01:34 45.3 °F 44.1 °F 30 in West 4 mph 6 mph 95% 0 in 0 W/m2
01:39 45.3 °F 43.7 °F 30 in West 6 mph 7 mph 94% 0 in 0 W/m2
01:44 45.5 °F 43.9 °F 30 in WNW 2.9 mph 7 mph 94% 0 in 0 W/m2
01:49 45.7 °F 44.1 °F 30 in WNW 4 mph 6 mph 94% 0 in 0 W/m2
01:54 45.7 °F 44.1 °F 30 in WNW 6 mph 7 mph 94% 0 in 0 W/m2
01:59 45.7 °F 44.1 °F 30 in West 4 mph 5 mph 94% 0 in 0 W/m2
02:04 45.7 °F 44.1 °F 30 in WSW 6 mph 7 mph 94% 0 in 0 W/m2
02:09 45.9 °F 44.2 °F 30 in West 6.9 mph 9 mph 94% 0 in 0 W/m2
02:14 45.9 °F 44.2 °F 30 in West 2.9 mph 7 mph 94% 0 in 0 W/m2
02:19 45.9 °F 44.2 °F 30 in WNW 9 mph 9 mph 94% 0 in 0 W/m2
02:24 45.9 °F 44.2 °F 30 in West 2.9 mph 6 mph 94% 0 in 0 W/m2
02:29 45.9 °F 43.9 °F 30 in West 2.9 mph 6 mph 93% 0 in 0 W/m2
02:34 45.9 °F 43.9 °F 30 in West 2 mph 7 mph 93% 0 in 0 W/m2
02:39 45.9 °F 43.9 °F 30 in SW 0.9 mph 2 mph 93% 0 in 0 W/m2
02:44 45.9 °F 43.9 °F 30 in WSW 4 mph 7 mph 93% 0 in 0 W/m2
02:49 45.9 °F 43.9 °F 30 in West 2 mph 3 mph 93% 0 in 0 W/m2
02:54 45.9 °F 43.9 °F 30 in West 2.9 mph 4 mph 93% 0 in 0 W/m2
02:59 45.7 °F 43.7 °F 30 in West 4 mph 8 mph 93% 0 in 0 W/m2
03:04 45.7 °F 43.7 °F 30 in WNW 6.9 mph 8 mph 93% 0 in 0 W/m2
03:09 45.7 °F 43.7 °F 30 in WNW 4 mph 7 mph 93% 0 in 0 W/m2
03:14 45.7 °F 43.7 °F 30 in WNW 6.9 mph 7 mph 93% 0 in 0 W/m2
03:19 45.5 °F 43.5 °F 30 in WSW 4.9 mph 8 mph 93% 0 in 0 W/m2
03:24 45.5 °F 43.5 °F 30 in NW 2.9 mph 6 mph 93% 0 in 0 W/m2
03:29 45.3 °F 43.3 °F 30 in Calm   8 mph 93% 0 in 0 W/m2
03:34 45.3 °F 43.3 °F 30 in West 2 mph 4 mph 93% 0 in 0 W/m2
03:39 45.1 °F 43.2 °F 30 in WSW 2 mph 3 mph 93% 0 in 0 W/m2
03:44 45.1 °F 43.2 °F 30 in Calm   3 mph 93% 0 in 0 W/m2
03:49 45.1 °F 43.2 °F 30 in Calm   3 mph 93% 0 in 0 W/m2
03:54 45 °F 43 °F 30 in WNW 2.9 mph 4 mph 93% 0 in 0 W/m2
03:59 45 °F 43 °F 30 in West 2 mph 4 mph 93% 0 in 0 W/m2
04:04 44.8 °F 42.8 °F 30 in West 2.9 mph 3 mph 93% 0 in 0 W/m2
04:09 44.8 °F 43.2 °F 30 in West 4 mph 4 mph 94% 0 in 0 W/m2
04:14 44.8 °F 43.2 °F 30 in West 2 mph 4 mph 94% 0 in 0 W/m2
04:19 44.8 °F 43.2 °F 30 in West 2 mph 4 mph 94% 0 in 0 W/m2
04:24 44.8 °F 43.2 °F 30 in WNW 2.9 mph 3 mph 94% 0 in 0 W/m2
04:29 44.6 °F 43 °F 30 in Calm     94% 0 in 0 W/m2
04:34 44.4 °F 42.8 °F 30 in Calm   1 mph 94% 0 in 0 W/m2
04:39 44.4 °F 42.8 °F 30 in Calm     94% 0 in 0 W/m2
04:44 44.2 °F 42.6 °F 30 in Calm     94% 0 in 0 W/m2
04:49 44.2 °F 42.6 °F 30 in WNW 0.9 mph 2 mph 94% 0 in 0 W/m2
04:54 44.2 °F 42.6 °F 30 in WNW 0.9 mph 3 mph 94% 0 in 0 W/m2
04:59 44.2 °F 42.6 °F 30 in WNW 2 mph 2 mph 94% 0 in 0 W/m2
05:04 44.2 °F 43 °F 30 in WNW 2 mph 3 mph 95% 0 in 0 W/m2
05:09 44.4 °F 43.2 °F 30 in WNW 2.9 mph 6 mph 95% 0 in 0 W/m2
05:14 44.6 °F 43.3 °F 30 in West 2 mph 4 mph 95% 0 in 0 W/m2
05:19 44.8 °F 43.5 °F 30.1 in West 2 mph 3 mph 95% 0 in 0 W/m2
05:24 44.8 °F 43.2 °F 30.1 in West 2.9 mph 3 mph 94% 0 in 0 W/m2
05:29 44.8 °F 43.2 °F 30.1 in West 2.9 mph 4 mph 94% 0 in 0 W/m2
05:34 45 °F 43.3 °F 30.1 in WNW 2 mph 2 mph 94% 0 in 0 W/m2
05:39 45 °F 43.3 °F 30.1 in West 2 mph 3 mph 94% 0 in 0 W/m2
05:44 45 °F 43.3 °F 30.1 in West 2 mph 4 mph 94% 0 in 0 W/m2
05:49 45 °F 43.3 °F 30.1 in West 0.9 mph 4 mph 94% 0 in 0 W/m2
05:54 45 °F 43.3 °F 30.1 in WSW 2.9 mph 3 mph 94% 0 in 0 W/m2
05:59 45 °F 43.3 °F 30.1 in WSW 2 mph 6 mph 94% 0 in 0 W/m2
06:04 45 °F 43.3 °F 30.1 in West 0.9 mph 3 mph 94% 0 in 0 W/m2
06:09 45 °F 43.3 °F 30.1 in WNW 0.9 mph 5 mph 94% 0 in 0 W/m2
06:14 45.1 °F 43.5 °F 30.1 in West 0.9 mph 3 mph 94% 0 in 0 W/m2
06:19 45.1 °F 43.5 °F 30.1 in West 2.9 mph 3 mph 94% 0 in 0 W/m2
06:24 45.1 °F 43.5 °F 30.1 in WNW 0.9 mph 3 mph 94% 0 in 0 W/m2
06:29 45.1 °F 43.2 °F 30.1 in WNW 0.9 mph 2 mph 93% 0 in 0 W/m2
06:35 45.1 °F 43.2 °F 30.1 in WNW 0.9 mph 3 mph 93% 0 in 0 W/m2
06:40 45.1 °F 43.2 °F 30.1 in West 2 mph 2 mph 93% 0 in 0 W/m2
06:45 45.1 °F 43.5 °F 30.1 in West 2 mph 3 mph 94% 0 in 0 W/m2
06:50 45.1 °F 43.5 °F 30.1 in SW 2.9 mph 3 mph 94% 0 in 0 W/m2
06:55 45.1 °F 43.5 °F 30.1 in Calm   1 mph 94% 0 in 0 W/m2
07:00 45.1 °F 43.5 °F 30.1 in Calm   2 mph 94% 0 in 0 W/m2
07:05 45.1 °F 43.5 °F 30.1 in Calm   2 mph 94% 0 in 0 W/m2
07:10 45.1 °F 43.5 °F 30.1 in Calm     94% 0 in 0 W/m2
07:15 45.1 °F 43.5 °F 30.1 in Calm     94% 0 in 0 W/m2
07:20 45.1 °F 43.5 °F 30.1 in Calm     94% 0 in 0 W/m2
07:25 45.1 °F 43.5 °F 30.1 in Calm     94% 0 in 0 W/m2
07:30 45.1 °F 43.5 °F 30.1 in Calm     94% 0 in 0 W/m2
07:35 45.1 °F 43.5 °F 30.1 in Calm     94% 0 in 0 W/m2
07:40 45 °F 43.3 °F 30.1 in Calm     94% 0 in 0 W/m2
07:45 45 °F 43.3 °F 30.1 in Calm     94% 0 in 0 W/m2
07:50 45 °F 43.3 °F 30.1 in Calm     94% 0 in 5 W/m2
07:55 45 °F 43.3 °F 30.1 in Calm     94% 0 in 7 W/m2
08:00 45 °F 43.3 °F 30.1 in Calm     94% 0 in 9 W/m2
08:05 45 °F 43.3 °F 30.1 in Calm     94% 0 in 11 W/m2
08:10 45 °F 43.3 °F 30.1 in Calm     94% 0 in 14 W/m2
08:15 45 °F 43.3 °F 30.1 in Calm   1 mph 94% 0 in 21 W/m2
08:20 45.1 °F 43.5 °F 30.1 in Calm     94% 0 in 30 W/m2
08:25 45.1 °F 43.5 °F 30.1 in Calm     94% 0 in 40 W/m2
08:30 45.1 °F 43.5 °F 30.1 in Calm     94% 0 in 46 W/m2
08:35 45.1 °F 43.5 °F 30.1 in West 0.9 mph 2 mph 94% 0 in 47 W/m2
08:40 45.3 °F 43.7 °F 30.1 in WNW 2 mph 3 mph 94% 0 in 51 W/m2
08:45 45.3 °F 43.3 °F 30.1 in WSW 2.9 mph 4 mph 93% 0 in 56 W/m2
08:50 45.5 °F 43.5 °F 30.2 in West 2 mph 3 mph 93% 0 in 76 W/m2
08:55 45.7 °F 43.7 °F 30.2 in West 2 mph 4 mph 93% 0 in 84 W/m2
09:00 45.9 °F 43.7 °F 30.2 in West 2 mph 5 mph 92% 0 in 84 W/m2
09:05 46 °F 43.5 °F 30.2 in WNW 2 mph 3 mph 91% 0 in 90 W/m2
09:10 46 °F 43.5 °F 30.2 in WSW 2 mph 3 mph 91% 0 in 91 W/m2
09:15 46.2 °F 43.5 °F 30.2 in NW 2.9 mph 4 mph 90% 0 in 72 W/m2
09:20 46.4 °F 43.3 °F 30.2 in WNW 2.9 mph 4 mph 89% 0 in 72 W/m2
09:25 46.6 °F 43.5 °F 30.2 in WNW 0.9 mph 3 mph 89% 0 in 74 W/m2
09:30 46.6 °F 43.5 °F 30.2 in WNW 2.9 mph 5 mph 89% 0 in 60 W/m2
09:35 46.6 °F 43.5 °F 30.2 in WNW 2 mph 5 mph 89% 0 in 56 W/m2
09:40 46.6 °F 43.5 °F 30.2 in WSW 2 mph 4 mph 89% 0 in 58 W/m2
09:45 46.6 °F 43.2 °F 30.2 in WSW 2 mph 4 mph 88% 0 in 63 W/m2
09:50 46.6 °F 43.2 °F 30.2 in NW 0.9 mph 4 mph 88% 0 in 70 W/m2
09:55 46.8 °F 43.3 °F 30.2 in WNW 2 mph 4 mph 88% 0 in 74 W/m2
10:00 46.9 °F 43.5 °F 30.2 in NW 2.9 mph 3 mph 88% 0 in 86 W/m2
10:05 47.1 °F 43.7 °F 30.2 in WNW 0.9 mph 2 mph 88% 0 in 83 W/m2
10:10 47.5 °F 44.1 °F 30.2 in WNW 2 mph 3 mph 88% 0 in 86 W/m2
10:15 47.7 °F 44.1 °F 30.2 in WSW 4.9 mph 5 mph 87% 0 in 100 W/m2
10:20 47.8 °F 43.9 °F 30.2 in NW 4 mph 7 mph 86% 0 in 91 W/m2
10:25 48 °F 44.1 °F 30.2 in West 2 mph 6 mph 86% 0 in 86 W/m2
10:30 48.2 °F 44.2 °F 30.2 in NW 2 mph 2 mph 86% 0 in 107 W/m2
10:35 48.4 °F 44.4 °F 30.2 in NW 2 mph 3 mph 86% 0 in 104 W/m2
10:40 48.6 °F 44.6 °F 30.2 in Calm   1 mph 86% 0 in 128 W/m2
10:45 48.7 °F 44.8 °F 30.2 in WNW 0.9 mph 2 mph 86% 0 in 120 W/m2
10:50 48.9 °F 44.6 °F 30.2 in West 0.9 mph 3 mph 85% 0 in 100 W/m2
10:55 48.9 °F 44.6 °F 30.2 in WNW 2 mph 4 mph 85% 0 in 98 W/m2
11:00 48.9 °F 44.2 °F 30.2 in WNW 2 mph 4 mph 84% 0 in 109 W/m2
11:05 48.9 °F 44.1 °F 30.2 in WNW 2 mph 3 mph 83% 0 in 109 W/m2
11:10 48.9 °F 44.1 °F 30.2 in WNW 0.9 mph 2 mph 83% 0 in 148 W/m2
11:15 49.1 °F 44.2 °F 30.2 in WNW 0.9 mph 3 mph 83% 0 in 142 W/m2
11:20 49.3 °F 44.4 °F 30.2 in NW 0.9 mph 4 mph 83% 0 in 163 W/m2
11:25 49.3 °F 43.7 °F 30.2 in SW 2.9 mph 7 mph 81% 0 in 134 W/m2
11:30 49.3 °F 44.1 °F 30.2 in West 0.9 mph 3 mph 82% 0 in 107 W/m2
11:35 49.3 °F 44.1 °F 30.2 in Calm   5 mph 82% 0 in 77 W/m2
11:40 49.3 °F 44.1 °F 30.2 in WNW 2 mph 2 mph 82% 0 in 67 W/m2
11:45 49.3 °F 44.4 °F 30.2 in Calm   3 mph 83% 0 in 83 W/m2
11:50 49.3 °F 44.1 °F 30.2 in Calm   2 mph 82% 0 in 123 W/m2
11:55 49.5 °F 44.2 °F 30.2 in Calm     82% 0 in 158 W/m2
12:00 49.6 °F 44.1 °F 30.2 in WNW 2 mph 2 mph 81% 0 in 165 W/m2
12:05 49.8 °F 43.9 °F 30.2 in WNW 0.9 mph 2 mph 80% 0 in 162 W/m2
12:10 50.2 °F 43.9 °F 30.2 in Calm     79% 0 in 135 W/m2
12:15 50.4 °F 44.1 °F 30.2 in Calm   2 mph 79% 0 in 81 W/m2
12:20 50.4 °F 43.7 °F 30.2 in NW 0.9 mph 1 mph 78% 0 in 97 W/m2
12:25 50.5 °F 43.5 °F 30.2 in Calm   2 mph 77% 0 in 158 W/m2
12:30 50.5 °F 43 °F 30.2 in Calm   2 mph 75% 0 in 105 W/m2
12:35 50.9 °F 43.5 °F 30.2 in SE 0.9 mph 1 mph 76% 0 in 81 W/m2
12:40 51.1 °F 43.5 °F 30.2 in WNW 2 mph 4 mph 75% 0 in 83 W/m2
12:45 51.1 °F 43.7 °F 30.2 in NNW 2 mph 4 mph 76% 0 in 120 W/m2
12:50 51.1 °F 43.2 °F 30.2 in WNW 6.9 mph 7 mph 74% 0 in 139 W/m2
12:55 51.3 °F 43.5 °F 30.2 in WNW 4 mph 5 mph 75% 0 in 135 W/m2
13:01 51.1 °F 43.5 °F 30.2 in WNW 2.9 mph 4 mph 75% 0 in 91 W/m2
13:06 50.9 °F 43.5 °F 30.2 in NNW 4 mph 7 mph 76% 0 in 56 W/m2
13:11 50.7 °F 43.2 °F 30.2 in NW 2.9 mph 6 mph 75% 0 in 53 W/m2
13:16 50.5 °F 43.3 °F 30.2 in WNW 2 mph 4 mph 76% 0 in 62 W/m2
13:21 50.5 °F 43.5 °F 30.2 in NW 2 mph 3 mph 77% 0 in 77 W/m2
13:26 50.5 °F 43.5 °F 30.2 in WNW 2 mph 4 mph 77% 0 in 95 W/m2
13:31 50.5 °F 43.5 °F 30.2 in WNW 2.9 mph 5 mph 77% 0 in 111 W/m2
13:36 50.7 °F 44.1 °F 30.2 in WNW 4 mph 4 mph 78% 0 in 120 W/m2
13:41 50.7 °F 44.1 °F 30.2 in NW 2 mph 3 mph 78% 0 in 120 W/m2
13:46 50.9 °F 44.2 °F 30.2 in NW 0.9 mph 5 mph 78% 0 in 105 W/m2
13:51 50.9 °F 43.9 °F 30.2 in WNW 0.9 mph 3 mph 77% 0 in 111 W/m2
13:56 51.1 °F 43.7 °F 30.2 in North 0.9 mph 3 mph 76% 0 in 114 W/m2
14:01 51.1 °F 44.1 °F 30.2 in WNW 2 mph 4 mph 77% 0 in 171 W/m2
14:06 51.1 °F 44.4 °F 30.2 in West 2 mph 7 mph 78% 0 in 156 W/m2
14:11 51.3 °F 44.2 °F 30.2 in WNW 2 mph 4 mph 77% 0 in 139 W/m2
14:16 51.4 °F 44.1 °F 30.2 in NNE 0.9 mph 4 mph 76% 0 in 134 W/m2
14:21 51.4 °F 43.7 °F 30.2 in Calm   2 mph 75% 0 in 142 W/m2
14:26 51.4 °F 43.5 °F 30.2 in WNW 2 mph 4 mph 74% 0 in 162 W/m2
14:31 51.6 °F 43.5 °F 30.2 in NNE 0.9 mph 2 mph 74% 0 in 158 W/m2
14:36 51.6 °F 43.5 °F 30.3 in North 0.9 mph 5 mph 74% 0 in 137 W/m2
14:41 51.6 °F 43.3 °F 30.3 in North 2.9 mph 4 mph 73% 0 in 128 W/m2
14:46 52 °F 43.5 °F 30.3 in NW 4 mph 5 mph 73% 0 in 118 W/m2
14:51 51.8 °F 43 °F 30.3 in West 2 mph 6 mph 72% 0 in 107 W/m2
14:56 51.6 °F 43.3 °F 30.3 in East 0.9 mph 2 mph 73% 0 in 83 W/m2
15:01 51.6 °F 43.3 °F 30.3 in Calm   6 mph 73% 0 in 67 W/m2
15:06 51.6 °F 43.3 °F 30.3 in Calm   4 mph 73% 0 in 56 W/m2
15:11 51.4 °F 43.5 °F 30.3 in NW 2 mph 7 mph 74% 0 in 54 W/m2
15:16 51.4 °F 43.7 °F 30.3 in WSW 4 mph 7 mph 75% 0 in 56 W/m2
15:21 51.1 °F 43.5 °F 30.3 in WNW 2.9 mph 4 mph 75% 0 in 60 W/m2
15:26 51.1 °F 43.5 °F 30.3 in WNW 8.1 mph 8 mph 75% 0 in 54 W/m2
15:31 50.9 °F 43.3 °F 30.3 in West 2 mph 7 mph 75% 0 in 51 W/m2
15:36 50.9 °F 43.3 °F 30.3 in NW 0.9 mph 2 mph 75% 0 in 42 W/m2
15:41 50.9 °F 43.3 °F 30.3 in North 0.9 mph 5 mph 75% 0 in 39 W/m2
15:46 50.9 °F 43.5 °F 30.3 in NW 2 mph 3 mph 76% 0 in 39 W/m2
15:51 50.9 °F 43.5 °F 30.3 in NW 2 mph 4 mph 76% 0 in 44 W/m2
15:56 50.9 °F 43.5 °F 30.3 in Calm   2 mph 76% 0 in 42 W/m2
16:01 50.7 °F 43.5 °F 30.3 in NW 2 mph 4 mph 76% 0 in 40 W/m2
16:06 50.7 °F 43.2 °F 30.3 in Calm   1 mph 75% 0 in 35 W/m2
16:36 50.2 °F 43.5 °F 30.3 in Calm   2 mph 78% 0 in 26 W/m2
16:41 50 °F 43.3 °F 30.3 in Calm     78% 0 in 21 W/m2
16:46 49.6 °F 43.3 °F 30.3 in West 0.9 mph 2 mph 79% 0 in 18 W/m2
16:51 49.5 °F 43.5 °F 30.3 in Calm     80% 0 in 12 W/m2
16:56 49.3 °F 43.7 °F 30.3 in WNW 0.9 mph 2 mph 81% 0 in 11 W/m2
17:01 48.9 °F 43.3 °F 30.3 in Calm   1 mph 81% 0 in 7 W/m2
17:06 48.7 °F 43.5 °F 30.3 in Calm   2 mph 82% 0 in 5 W/m2
17:11 48.6 °F 43.3 °F 30.3 in WSW 2 mph 3 mph 82% 0 in 0 W/m2
17:16 48.4 °F 43.2 °F 30.3 in WSW 0.9 mph 2 mph 82% 0 in 0 W/m2
17:21 48.4 °F 43.2 °F 30.3 in WSW 0.9 mph 3 mph 82% 0 in 0 W/m2
17:26 48 °F 43.2 °F 30.3 in Calm   1 mph 83% 0 in 0 W/m2
17:31 48 °F 43.2 °F 30.3 in Calm   1 mph 83% 0 in 0 W/m2
17:36 47.8 °F 43.2 °F 30.3 in Calm     84% 0 in 0 W/m2
17:41 47.7 °F 43 °F 30.3 in Calm     84% 0 in 0 W/m2
17:46 47.5 °F 43.2 °F 30.3 in Calm     85% 0 in 0 W/m2
17:51 47.1 °F 43.2 °F 30.3 in WSW 2.9 mph 4 mph 86% 0 in 0 W/m2
17:56 46.9 °F 43 °F 30.3 in West 2.9 mph 4 mph 86% 0 in 0 W/m2
18:01 46.9 °F 43 °F 30.3 in WNW 0.9 mph 3 mph 86% 0 in 0 W/m2
18:06 46.9 °F 43.3 °F 30.3 in WSW 2.9 mph 3 mph 87% 0 in 0 W/m2
18:11 46.9 °F 43 °F 30.3 in Calm   2 mph 86% 0 in 0 W/m2
18:16 46.9 °F 43 °F 30.3 in Calm   1 mph 86% 0 in 0 W/m2
18:21 46.8 °F 42.8 °F 30.3 in Calm     86% 0 in 0 W/m2
18:26 46.6 °F 43 °F 30.3 in West 0.9 mph 2 mph 87% 0 in 0 W/m2
18:31 46.4 °F 42.8 °F 30.3 in West 2 mph 3 mph 87% 0 in 0 W/m2
18:36 46.6 °F 43.2 °F 30.3 in Calm   2 mph 88% 0 in 0 W/m2
18:41 46.8 °F 43.2 °F 30.3 in Calm   2 mph 87% 0 in 0 W/m2
18:46 46.8 °F 43.2 °F 30.3 in Calm   1 mph 87% 0 in 0 W/m2
18:51 46.6 °F 43.2 °F 30.3 in Calm   1 mph 88% 0 in 0 W/m2
18:56 46.4 °F 43 °F 30.3 in Calm   1 mph 88% 0 in 0 W/m2
19:01 46.2 °F 42.8 °F 30.3 in WSW 0.9 mph 2 mph 88% 0 in 0 W/m2
19:06 46.2 °F 43.2 °F 30.3 in West 2 mph 2 mph 89% 0 in 0 W/m2
19:11 46.2 °F 43.2 °F 30.3 in West 0.9 mph 4 mph 89% 0 in 0 W/m2
19:16 46.2 °F 43.2 °F 30.3 in Calm   2 mph 89% 0 in 0 W/m2
19:21 46 °F 43 °F 30.3 in West 2 mph 4 mph 89% 0 in 0 W/m2
19:26 46 °F 43.3 °F 30.3 in West 2 mph 3 mph 90% 0 in 0 W/m2
19:31 46 °F 43 °F 30.3 in WNW 2.9 mph 4 mph 89% 0 in 0 W/m2
19:36 46.4 °F 43.3 °F 30.3 in West 2.9 mph 4 mph 89% 0 in 0 W/m2
19:41 46.6 °F 43.2 °F 30.3 in West 2 mph 3 mph 88% 0 in 0 W/m2
19:46 46.6 °F 43.2 °F 30.3 in West 2.9 mph 4 mph 88% 0 in 0 W/m2
19:51 46.6 °F 43.2 °F 30.3 in West 0.9 mph 2 mph 88% 0 in 0 W/m2
19:56 46.2 °F 42.8 °F 30.3 in WNW 2 mph 4 mph 88% 0 in 0 W/m2
20:01 45.7 °F 42.3 °F 30.3 in WNW 4 mph 4 mph 88% 0 in 0 W/m2
20:06 45.5 °F 42.4 °F 30.3 in WSW 2.9 mph 4 mph 89% 0 in 0 W/m2
20:11 45.5 °F 42.8 °F 30.3 in WNW 2 mph 4 mph 90% 0 in 0 W/m2
20:16 45.7 °F 42.6 °F 30.3 in WNW 0.9 mph 3 mph 89% 0 in 0 W/m2
20:21 45.9 °F 42.8 °F 30.3 in West 2 mph 3 mph 89% 0 in 0 W/m2
20:26 45.9 °F 42.8 °F 30.3 in WSW 0.9 mph 4 mph 89% 0 in 0 W/m2
20:32 45.7 °F 42.6 °F 30.3 in Calm     89% 0 in 0 W/m2
20:37 45.3 °F 42.3 °F 30.3 in Calm   4 mph 89% 0 in 0 W/m2
20:42 45.1 °F 42.1 °F 30.3 in West 2.9 mph 3 mph 89% 0 in 0 W/m2
20:47 45 °F 42.3 °F 30.3 in Calm   1 mph 90% 0 in 0 W/m2
20:52 44.4 °F 41.4 °F 30.3 in Calm     89% 0 in 0 W/m2
20:57 44.1 °F 41.4 °F 30.3 in Calm   1 mph 90% 0 in 0 W/m2
21:02 43.7 °F 41 °F 30.3 in Calm     90% 0 in 0 W/m2
21:07 43.3 °F 40.6 °F 30.4 in Calm     90% 0 in 0 W/m2
21:12 43.2 °F 40.6 °F 30.4 in Calm     91% 0 in 0 W/m2
21:17 43 °F 40.5 °F 30.4 in Calm     91% 0 in 0 W/m2
21:22 42.8 °F 40.6 °F 30.4 in Calm     92% 0 in 0 W/m2
21:27 42.6 °F 40.5 °F 30.4 in Calm     92% 0 in 0 W/m2
21:32 42.4 °F 40.3 °F 30.4 in Calm     92% 0 in 0 W/m2
21:37 42.4 °F 40.3 °F 30.4 in Calm     92% 0 in 0 W/m2
21:42 42.3 °F 40.5 °F 30.4 in Calm     93% 0 in 0 W/m2
21:47 42.3 °F 40.5 °F 30.4 in Calm     93% 0 in 0 W/m2
21:52 42.3 °F 40.5 °F 30.4 in Calm     93% 0 in 0 W/m2
21:57 42.3 °F 40.6 °F 30.4 in Calm     94% 0 in 0 W/m2
22:02 42.3 °F 40.6 °F 30.4 in Calm     94% 0 in 0 W/m2
22:07 42.3 °F 40.6 °F 30.4 in Calm     94% 0 in 0 W/m2
22:12 42.4 °F 40.8 °F 30.4 in Calm     94% 0 in 0 W/m2
22:17 42.4 °F 40.8 °F 30.4 in Calm     94% 0 in 0 W/m2
22:22 42.4 °F 40.8 °F 30.4 in Calm     94% 0 in 0 W/m2
22:27 42.4 °F 40.8 °F 30.4 in Calm     94% 0 in 0 W/m2
22:32 42.6 °F 41 °F 30.4 in Calm     94% 0 in 0 W/m2
22:37 42.6 °F 41 °F 30.4 in Calm     94% 0 in 0 W/m2
22:42 42.6 °F 41.4 °F 30.4 in Calm     95% 0 in 0 W/m2
22:47 42.8 °F 41.5 °F 30.4 in Calm     95% 0 in 0 W/m2
22:52 42.8 °F 41.5 °F 30.4 in Calm     95% 0 in 0 W/m2
22:57 43 °F 41.7 °F 30.4 in Calm     95% 0 in 0 W/m2
23:02 43 °F 41.7 °F 30.4 in Calm     95% 0 in 0 W/m2
23:07 43.2 °F 41.9 °F 30.4 in Calm     95% 0 in 0 W/m2
23:12 43.2 °F 41.9 °F 30.4 in Calm     95% 0 in 0 W/m2
23:17 43.2 °F 41.9 °F 30.4 in Calm     95% 0 in 0 W/m2
23:22 43.2 °F 41.9 °F 30.4 in West 0.9 mph 2 mph 95% 0 in 0 W/m2
23:27 43.3 °F 42.1 °F 30.4 in WSW 2 mph 3 mph 95% 0 in 0 W/m2
23:32 43.7 °F 42.4 °F 30.4 in West 0.9 mph 4 mph 95% 0 in 0 W/m2
23:37 44.1 °F 42.8 °F 30.4 in Calm   1 mph 95% 0 in 0 W/m2
23:42 44.2 °F 43 °F 30.4 in Calm   4 mph 95% 0 in 0 W/m2
23:47 44.2 °F 43 °F 30.4 in West 2 mph 2 mph 95% 0 in 0 W/m2
23:52 44.4 °F 43.2 °F 30.4 in Calm     95% 0 in 0 W/m2
23:57 44.4 °F 43.2 °F 30.4 in Calm     95% 0 in 0 W/m2
Juneau County Weather
Compliments of Weather Underground - 4 mb